createdAt,value
2022-08-26T00:00:48.701Z,89.47
2022-08-26T00:03:16.537Z,91.86
2022-08-26T00:05:45.219Z,90.64
2022-08-26T00:08:14.872Z,90.49
2022-08-26T00:10:42.444Z,89.48
2022-08-26T00:13:10.057Z,90.73
2022-08-26T00:15:36.934Z,90.85
2022-08-26T00:18:03.497Z,90.27
2022-08-26T00:20:43.689Z,90.57
2022-08-26T00:23:10.064Z,90.56
2022-08-26T00:25:37.811Z,90.52
2022-08-26T00:28:09.196Z,90.16
2022-08-26T00:30:38.102Z,89.78
2022-08-26T00:33:05.040Z,91.14
2022-08-26T00:35:33.554Z,89.59
2022-08-26T00:38:01.517Z,89.59
2022-08-26T00:40:36.889Z,90.67
2022-08-26T00:43:09.366Z,90.68
2022-08-26T00:45:46.253Z,92.57
2022-08-26T00:48:16.304Z,91.55
2022-08-26T00:50:50.369Z,91.68
2022-08-26T00:53:18.238Z,91.26
2022-08-26T00:55:44.854Z,91.06
2022-08-26T00:58:11.249Z,91.37
2022-08-26T01:00:37.644Z,90.72
2022-08-26T01:03:05.264Z,91.33
2022-08-26T01:05:33.882Z,91.06
2022-08-26T01:08:00.256Z,90.60
2022-08-26T01:10:31.008Z,90.53
2022-08-26T01:13:01.361Z,91.34
2022-08-26T01:15:35.131Z,91.12
2022-08-26T01:18:04.826Z,91.17
2022-08-26T01:20:53.155Z,90.90
2022-08-26T01:23:28.713Z,90.72
2022-08-26T01:26:02.229Z,89.71
2022-08-26T01:28:33.125Z,90.64
2022-08-26T01:31:03.786Z,90.47
2022-08-26T01:33:43.577Z,91.02
2022-08-26T01:36:11.161Z,91.22
2022-08-26T01:38:38.432Z,91.08
2022-08-26T01:41:16.095Z,90.08
2022-08-26T01:43:49.894Z,89.33
2022-08-26T01:46:17.968Z,90.77
2022-08-26T01:48:46.078Z,89.58
2022-08-26T01:51:14.889Z,89.45
2022-08-26T01:53:43.098Z,89.34
2022-08-26T01:56:14.770Z,89.17
2022-08-26T01:58:53.872Z,89.42
2022-08-26T02:01:21.465Z,89.09
2022-08-26T02:04:25.446Z,89.61
2022-08-26T02:06:53.435Z,90.05
2022-08-26T02:09:20.545Z,88.84
2022-08-26T02:11:47.429Z,90.17
2022-08-26T02:14:19.385Z,89.63
2022-08-26T02:16:48.885Z,89.66
2022-08-26T02:19:20.494Z,89.77
2022-08-26T02:21:51.213Z,89.72
2022-08-26T02:24:23.504Z,89.25
2022-08-26T02:26:50.919Z,89.18
2022-08-26T02:29:31.990Z,90.45
2022-08-26T02:31:58.643Z,90.85
2022-08-26T02:34:31.352Z,91.07
2022-08-26T02:37:00.547Z,91.21
2022-08-26T02:39:28.533Z,90.32
2022-08-26T02:41:55.573Z,90.88
2022-08-26T02:44:21.919Z,90.08
2022-08-26T02:46:48.552Z,90.92
2022-08-26T02:49:17.055Z,90.82
2022-08-26T02:51:43.670Z,89.77
2022-08-26T02:54:10.041Z,90.96
2022-08-26T02:56:36.379Z,91.02
2022-08-26T02:59:02.799Z,91.08
2022-08-26T03:01:32.626Z,91.21
2022-08-26T03:04:00.619Z,90.90
2022-08-26T03:06:27.156Z,91.57
2022-08-26T03:08:53.623Z,91.49
2022-08-26T03:11:20.256Z,91.33
2022-08-26T03:13:48.170Z,91.51
2022-08-26T03:16:14.645Z,91.49
2022-08-26T03:18:41.583Z,91.42
2022-08-26T03:21:10.200Z,91.43
2022-08-26T03:23:37.756Z,91.90
2022-08-26T03:26:05.045Z,91.91
2022-08-26T03:28:32.184Z,91.78
2022-08-26T03:30:59.041Z,91.41
2022-08-26T03:33:26.453Z,91.26
2022-08-26T03:35:54.168Z,91.56
2022-08-26T03:38:23.448Z,91.41
2022-08-26T03:40:49.801Z,91.89
2022-08-26T03:43:17.052Z,91.48
2022-08-26T03:45:44.328Z,91.03
2022-08-26T03:48:12.368Z,91.93
2022-08-26T03:50:38.873Z,91.91
2022-08-26T03:53:05.236Z,92.33
2022-08-26T03:55:34.078Z,92.31
2022-08-26T03:58:00.659Z,91.45
2022-08-26T04:00:27.317Z,91.95
2022-08-26T04:02:53.837Z,91.82
2022-08-26T04:05:22.044Z,92.13
2022-08-26T04:07:49.526Z,92.02
2022-08-26T04:10:20.268Z,92.23
2022-08-26T04:12:46.937Z,92.03
2022-08-26T04:15:14.897Z,92.70
2022-08-26T04:17:41.341Z,93.35
2022-08-26T04:20:08.721Z,92.79
2022-08-26T04:22:35.789Z,91.94
2022-08-26T04:25:02.160Z,92.07
2022-08-26T04:27:28.522Z,91.76
2022-08-26T04:29:55.398Z,91.13
2022-08-26T04:32:22.737Z,90.78
2022-08-26T04:34:49.116Z,90.72
2022-08-26T04:37:15.697Z,91.27
2022-08-26T04:39:42.574Z,90.73
2022-08-26T04:42:10.745Z,90.06
2022-08-26T04:44:37.397Z,89.85
2022-08-26T04:47:03.966Z,90.89
2022-08-26T04:49:35.140Z,90.18
2022-08-26T04:52:02.424Z,89.54
2022-08-26T04:54:28.911Z,89.78
2022-08-26T04:56:55.266Z,89.97
2022-08-26T04:59:22.585Z,89.82
2022-08-26T05:01:52.809Z,90.05
2022-08-26T05:04:20.885Z,90.02
2022-08-26T05:06:48.334Z,89.44
2022-08-26T05:09:15.798Z,89.74
2022-08-26T05:11:42.221Z,89.81
2022-08-26T05:14:09.013Z,89.94
2022-08-26T05:16:35.383Z,89.90
2022-08-26T05:19:02.570Z,89.90
2022-08-26T05:21:28.924Z,89.29
2022-08-26T05:23:56.298Z,88.94
2022-08-26T05:26:25.896Z,89.33
2022-08-26T05:28:54.750Z,89.23
2022-08-26T05:31:26.424Z,88.98
2022-08-26T05:33:53.529Z,88.97
2022-08-26T05:36:21.660Z,88.70
2022-08-26T05:38:49.142Z,88.04
2022-08-26T05:41:20.889Z,87.94
2022-08-26T05:43:47.799Z,87.43
2022-08-26T05:46:15.248Z,87.14
2022-08-26T05:48:44.371Z,87.21
2022-08-26T05:51:11.790Z,86.65
2022-08-26T05:53:40.036Z,86.32
2022-08-26T05:56:11.509Z,86.62
2022-08-26T05:58:39.960Z,86.29
2022-08-26T06:01:07.966Z,86.47
2022-08-26T06:03:38.779Z,85.98
2022-08-26T06:06:25.838Z,85.79
2022-08-26T06:08:54.966Z,85.29
2022-08-26T06:11:23.776Z,85.21
2022-08-26T06:13:51.957Z,85.01
2022-08-26T06:16:20.769Z,85.05
2022-08-26T06:18:48.062Z,84.83
2022-08-26T06:21:32.882Z,84.63
2022-08-26T06:24:03.105Z,84.19
2022-08-26T06:26:30.600Z,83.86
2022-08-26T06:28:57.185Z,83.86
2022-08-26T06:31:23.736Z,83.39
2022-08-26T06:33:50.679Z,83.53
2022-08-26T06:36:25.460Z,83.34
2022-08-26T06:38:53.209Z,82.86
2022-08-26T06:41:21.165Z,83.08
2022-08-26T06:43:47.735Z,82.84
2022-08-26T06:46:16.031Z,82.18
2022-08-26T06:48:43.458Z,82.24
2022-08-26T06:51:13.075Z,82.16
2022-08-26T06:53:41.241Z,82.23
2022-08-26T06:56:10.377Z,81.97
2022-08-26T06:58:39.301Z,81.97
2022-08-26T07:01:43.101Z,81.29
2022-08-26T07:04:11.533Z,81.08
2022-08-26T07:06:41.126Z,80.84
2022-08-26T07:09:10.394Z,80.35
2022-08-26T07:11:38.117Z,80.10
2022-08-26T07:14:05.152Z,79.70
2022-08-26T07:16:32.215Z,79.87
2022-08-26T07:18:59.545Z,79.47
2022-08-26T07:21:27.978Z,80.54
2022-08-26T07:24:00.043Z,80.34
2022-08-26T07:26:29.919Z,79.78
2022-08-26T07:28:58.076Z,79.79
2022-08-26T07:31:29.000Z,79.46
2022-08-26T07:33:57.157Z,79.41
2022-08-26T07:36:24.605Z,79.23
2022-08-26T07:38:51.948Z,79.30
2022-08-26T07:41:20.944Z,79.30
2022-08-26T07:43:47.309Z,79.25
2022-08-26T07:46:16.484Z,78.98
2022-08-26T07:48:46.226Z,77.99
2022-08-26T07:51:14.169Z,77.51
2022-08-26T07:53:40.701Z,76.95
2022-08-26T07:56:07.646Z,76.51
2022-08-26T07:58:35.268Z,76.18
2022-08-26T08:01:01.714Z,76.09
2022-08-26T08:03:31.131Z,75.92
2022-08-26T08:05:57.500Z,73.95
2022-08-26T08:08:26.875Z,72.15
2022-08-26T08:10:55.138Z,71.29
2022-08-26T08:13:23.685Z,68.42
2022-08-26T08:15:50.459Z,68.01
2022-08-26T08:18:17.717Z,66.10
2022-08-26T08:20:59.446Z,66.41
2022-08-26T08:23:32.393Z,66.07
2022-08-26T08:26:06.739Z,65.97
2022-08-26T08:28:35.878Z,67.08
2022-08-26T08:31:03.393Z,68.02
2022-08-26T08:33:29.916Z,67.82
2022-08-26T08:35:59.664Z,67.10
2022-08-26T08:38:27.223Z,66.46
2022-08-26T08:40:53.625Z,66.54
2022-08-26T08:43:38.249Z,67.42
2022-08-26T08:46:10.784Z,66.60
2022-08-26T08:48:42.214Z,67.57
2022-08-26T08:51:31.088Z,67.16
2022-08-26T08:53:59.082Z,67.46
2022-08-26T08:56:41.791Z,67.42
2022-08-26T08:59:19.417Z,68.66
2022-08-26T09:01:55.348Z,68.47
2022-08-26T09:04:49.675Z,69.23
2022-08-26T09:07:23.064Z,69.29
2022-08-26T09:10:29.338Z,69.51
2022-08-26T09:12:55.692Z,69.60
2022-08-26T09:15:30.195Z,70.10
2022-08-26T09:18:05.861Z,69.93
2022-08-26T09:21:01.120Z,69.88
2022-08-26T09:23:27.992Z,70.08
2022-08-26T09:26:02.391Z,70.78
2022-08-26T09:28:31.069Z,70.66
2022-08-26T09:31:02.065Z,70.38
2022-08-26T09:33:32.793Z,70.93
2022-08-26T09:36:22.628Z,70.56
2022-08-26T09:38:51.385Z,70.94
2022-08-26T09:41:30.189Z,70.98
2022-08-26T09:44:14.620Z,70.30
2022-08-26T09:46:55.559Z,70.27
2022-08-26T09:49:31.611Z,68.66
2022-08-26T09:52:19.767Z,69.20
2022-08-26T09:55:04.168Z,69.55
2022-08-26T09:57:43.771Z,69.17
2022-08-26T10:00:40.168Z,69.08
2022-08-26T10:03:10.891Z,69.61
2022-08-26T10:05:54.389Z,70.20
2022-08-26T10:08:26.562Z,71.54
2022-08-26T10:10:55.241Z,72.32
2022-08-26T10:13:27.996Z,72.81
2022-08-26T10:16:21.876Z,73.46
2022-08-26T10:19:05.922Z,73.82
2022-08-26T10:21:40.720Z,73.74
2022-08-26T10:24:14.871Z,73.16
2022-08-26T10:27:07.621Z,72.96
2022-08-26T10:29:44.717Z,73.55
2022-08-26T10:32:24.070Z,74.54
2022-08-26T10:34:51.895Z,74.83
2022-08-26T10:37:23.778Z,74.97
2022-08-26T10:39:58.629Z,74.64
2022-08-26T10:42:44.420Z,73.23
2022-08-26T10:45:16.493Z,72.14
2022-08-26T10:47:53.572Z,71.35
2022-08-26T10:50:23.931Z,71.49
2022-08-26T10:53:16.720Z,71.35
2022-08-26T10:56:00.052Z,70.93
2022-08-26T10:58:37.734Z,70.99
2022-08-26T11:01:27.427Z,70.81
2022-08-26T11:04:10.438Z,70.80
2022-08-26T11:06:37.362Z,71.21
2022-08-26T11:09:06.675Z,70.24
2022-08-26T11:11:43.799Z,70.29
2022-08-26T11:14:29.086Z,70.25
2022-08-26T11:16:57.177Z,68.29
2022-08-26T11:20:08.979Z,69.16
2022-08-26T11:22:47.684Z,68.26
2022-08-26T11:25:26.460Z,67.62
2022-08-26T11:28:00.566Z,66.90
2022-08-26T11:30:38.903Z,66.48
2022-08-26T11:33:07.028Z,65.59
2022-08-26T11:35:37.594Z,65.98
2022-08-26T11:38:04.284Z,65.62
2022-08-26T11:40:34.059Z,65.16
2022-08-26T11:43:06.857Z,65.62
2022-08-26T11:45:36.047Z,66.17
2022-08-26T11:48:28.140Z,66.43
2022-08-26T11:51:01.042Z,66.41
2022-08-26T11:53:31.429Z,65.84
2022-08-26T11:56:04.050Z,65.36
2022-08-26T11:58:30.728Z,65.68
2022-08-26T12:01:01.596Z,64.67
2022-08-26T12:03:34.978Z,65.71
2022-08-26T12:06:02.361Z,66.31
2022-08-26T12:08:32.837Z,66.86
2022-08-26T12:11:05.273Z,66.63
2022-08-26T12:13:31.802Z,66.01
2022-08-26T12:16:00.425Z,65.68
2022-08-26T12:18:33.604Z,64.67
2022-08-26T12:21:10.481Z,65.16
2022-08-26T12:23:45.957Z,64.73
2022-08-26T12:26:21.341Z,63.38
2022-08-26T12:29:00.010Z,62.95
2022-08-26T12:31:38.917Z,63.79
2022-08-26T12:34:17.456Z,63.54
2022-08-26T12:36:52.229Z,63.94
2022-08-26T12:39:31.407Z,63.87
2022-08-26T12:42:00.256Z,63.65
2022-08-26T12:45:00.532Z,63.86
2022-08-26T12:47:42.566Z,64.56
2022-08-26T12:50:12.756Z,64.36
2022-08-26T12:52:54.036Z,65.20
2022-08-26T12:55:25.044Z,66.18
2022-08-26T12:58:29.424Z,66.80
2022-08-26T13:01:18.846Z,67.61
2022-08-26T13:03:46.450Z,68.20
2022-08-26T13:06:25.424Z,68.11
2022-08-26T13:09:18.288Z,68.64
2022-08-26T13:11:44.687Z,69.32
2022-08-26T13:14:23.784Z,70.02
2022-08-26T13:16:52.423Z,70.70
2022-08-26T13:19:21.681Z,70.54
2022-08-26T13:21:54.258Z,71.21
2022-08-26T13:24:28.648Z,71.59
2022-08-26T13:26:55.177Z,72.41
2022-08-26T13:29:21.748Z,72.49
2022-08-26T13:31:48.625Z,72.19
2022-08-26T13:34:18.134Z,72.47
2022-08-26T13:36:45.554Z,72.70
2022-08-26T13:39:12.664Z,72.60
2022-08-26T13:41:39.578Z,73.09
2022-08-26T13:44:06.367Z,72.80
2022-08-26T13:46:33.195Z,73.41
2022-08-26T13:48:59.808Z,73.58
2022-08-26T13:51:27.034Z,73.24
2022-08-26T13:53:53.892Z,72.26
2022-08-26T13:56:21.074Z,71.96
2022-08-26T13:58:47.588Z,72.39
2022-08-26T14:01:16.992Z,72.14
2022-08-26T14:03:43.462Z,72.25
2022-08-26T14:06:10.791Z,71.22
2022-08-26T14:08:38.603Z,70.32
2022-08-26T14:11:05.471Z,68.75
2022-08-26T14:13:31.850Z,67.39
2022-08-26T14:15:58.557Z,67.54
2022-08-26T14:18:31.674Z,66.86
2022-08-26T14:20:58.327Z,66.74
2022-08-26T14:23:25.081Z,66.52
2022-08-26T14:25:52.144Z,66.50
2022-08-26T14:28:18.732Z,66.81
2022-08-26T14:30:50.900Z,66.93
2022-08-26T14:33:22.532Z,67.40
2022-08-26T14:35:49.106Z,68.03
2022-08-26T14:38:16.352Z,68.36
2022-08-26T14:40:43.252Z,68.36
2022-08-26T14:43:10.150Z,68.26
2022-08-26T14:48:13.694Z,69.63
2022-08-26T14:50:40.088Z,70.75
2022-08-26T14:53:06.462Z,70.67
2022-08-26T14:55:35.313Z,70.97
2022-08-26T14:58:01.938Z,70.61
2022-08-26T15:00:29.103Z,70.57
2022-08-26T15:02:56.026Z,71.01
2022-08-26T15:05:22.563Z,70.61
2022-08-26T15:07:48.958Z,71.03
2022-08-26T15:10:16.598Z,70.84
2022-08-26T15:12:43.269Z,70.59
2022-08-26T15:15:11.929Z,70.06
2022-08-26T15:17:39.032Z,69.83
2022-08-26T15:20:06.211Z,69.91
2022-08-26T15:22:32.620Z,69.23
2022-08-26T15:24:59.188Z,69.17
2022-08-26T15:27:25.632Z,68.81
2022-08-26T15:29:52.116Z,68.41
2022-08-26T15:32:18.949Z,68.27
2022-08-26T15:34:45.505Z,67.97
2022-08-26T15:37:12.426Z,68.03
2022-08-26T15:39:38.821Z,68.04
2022-08-26T15:42:05.552Z,68.13
2022-08-26T15:44:34.856Z,68.61
2022-08-26T15:47:01.332Z,68.81
2022-08-26T15:49:27.812Z,69.42
2022-08-26T15:51:54.257Z,69.51
2022-08-26T15:54:23.089Z,69.85
2022-08-26T15:56:49.927Z,69.74
2022-08-26T15:59:16.664Z,70.13
2022-08-26T16:01:43.590Z,70.35
2022-08-26T16:04:10.369Z,70.72
2022-08-26T16:06:39.588Z,70.86
2022-08-26T16:09:07.367Z,71.05
2022-08-26T16:11:35.027Z,71.15
2022-08-26T16:14:01.956Z,71.25
2022-08-26T16:16:28.588Z,71.35
2022-08-26T16:18:55.002Z,70.94
2022-08-26T16:21:25.387Z,70.67
2022-08-26T16:23:52.047Z,69.81
2022-08-26T16:26:22.462Z,70.54
2022-08-26T16:28:48.931Z,70.42
2022-08-26T16:31:16.157Z,70.03
2022-08-26T16:33:43.017Z,70.08
2022-08-26T16:36:11.558Z,70.26
2022-08-26T16:38:39.373Z,70.11
2022-08-26T16:41:06.984Z,69.76
2022-08-26T16:43:33.952Z,69.43
2022-08-26T16:46:00.762Z,69.08
2022-08-26T16:48:27.363Z,69.05
2022-08-26T16:50:53.927Z,69.48
2022-08-26T16:53:20.309Z,69.37
2022-08-26T16:55:48.119Z,69.05
2022-08-26T16:58:15.051Z,68.28
2022-08-26T17:00:41.839Z,68.72
2022-08-26T17:03:08.913Z,68.77
2022-08-26T17:05:35.756Z,69.41
2022-08-26T17:08:02.565Z,69.76
2022-08-26T17:10:29.941Z,69.81
2022-08-26T17:12:57.123Z,69.93
2022-08-26T17:15:23.851Z,69.84
2022-08-26T17:17:51.635Z,70.13
2022-08-26T17:20:19.102Z,70.12
2022-08-26T17:22:47.655Z,71.25
2022-08-26T17:25:19.017Z,71.50
2022-08-26T17:27:45.661Z,71.74
2022-08-26T17:30:12.967Z,71.56
2022-08-26T17:32:40.775Z,71.86
2022-08-26T17:35:07.419Z,72.56
2022-08-26T17:37:33.816Z,72.22
2022-08-26T17:40:00.758Z,72.06
2022-08-26T17:42:31.490Z,72.11
2022-08-26T17:44:58.328Z,72.46
2022-08-26T17:47:24.768Z,72.20
2022-08-26T17:49:51.192Z,71.99
2022-08-26T17:52:17.582Z,72.03
2022-08-26T17:54:43.966Z,72.04
2022-08-26T17:57:10.664Z,72.17
2022-08-26T17:59:37.357Z,71.92
2022-08-26T18:02:07.298Z,71.63
2022-08-26T18:04:33.660Z,71.46
2022-08-26T18:07:00.074Z,71.64
2022-08-26T18:09:28.902Z,71.27
2022-08-26T18:11:55.305Z,71.67
2022-08-26T18:14:21.729Z,71.67
2022-08-26T18:16:48.181Z,71.63
2022-08-26T18:19:14.509Z,71.92
2022-08-26T18:21:40.897Z,71.50
2022-08-26T18:24:11.042Z,71.86
2022-08-26T18:26:40.965Z,71.86
2022-08-26T18:29:07.831Z,71.53
2022-08-26T18:31:34.738Z,71.93
2022-08-26T18:34:02.543Z,71.81
2022-08-26T18:36:33.808Z,71.68
2022-08-26T18:39:00.862Z,71.79
2022-08-26T18:41:29.658Z,71.82
2022-08-26T18:43:56.561Z,72.13
2022-08-26T18:46:25.386Z,72.08
2022-08-26T18:48:53.596Z,72.22
2022-08-26T18:51:23.062Z,72.42
2022-08-26T18:53:49.833Z,72.48
2022-08-26T18:56:18.543Z,72.62
2022-08-26T18:58:45.975Z,72.57
2022-08-26T19:01:13.631Z,72.83
2022-08-26T19:03:40.398Z,72.36
2022-08-26T19:06:07.064Z,72.80
2022-08-26T19:08:33.395Z,72.88
2022-08-26T19:11:00.488Z,73.13
2022-08-26T19:13:26.891Z,73.17
2022-08-26T19:15:53.231Z,72.91
2022-08-26T19:18:19.608Z,73.21
2022-08-26T19:20:46.902Z,73.54
2022-08-26T19:23:31.021Z,73.33
2022-08-26T19:25:58.361Z,73.02
2022-08-26T19:28:24.746Z,73.77
2022-08-26T19:30:53.094Z,73.47
2022-08-26T19:33:19.874Z,73.41
2022-08-26T19:35:46.298Z,73.52
2022-08-26T19:38:13.771Z,73.56
2022-08-26T19:40:40.190Z,73.43
2022-08-26T19:43:07.063Z,73.46
2022-08-26T19:45:34.659Z,73.49
2022-08-26T19:48:01.713Z,73.62
2022-08-26T19:50:30.449Z,73.24
2022-08-26T19:52:57.817Z,73.33
2022-08-26T19:55:24.597Z,73.19
2022-08-26T19:57:51.360Z,72.83
2022-08-26T20:00:24.689Z,72.86
2022-08-26T20:02:51.964Z,72.63
2022-08-26T20:05:21.505Z,72.42
2022-08-26T20:07:49.013Z,72.44
2022-08-26T20:10:17.836Z,72.42
2022-08-26T20:12:44.434Z,72.23
2022-08-26T20:15:12.580Z,72.11
2022-08-26T20:17:40.284Z,71.88
2022-08-26T20:20:26.701Z,71.90
2022-08-26T20:22:55.465Z,71.92
2022-08-26T20:25:22.042Z,71.95
2022-08-26T20:27:48.458Z,71.93
2022-08-26T20:30:15.288Z,71.44
2022-08-26T20:32:42.116Z,71.28
2022-08-26T20:35:11.749Z,71.19
2022-08-26T20:37:38.504Z,71.28
2022-08-26T20:40:06.757Z,71.24
2022-08-26T20:42:33.161Z,71.02
2022-08-26T20:44:59.583Z,71.04
2022-08-26T20:47:26.012Z,71.46
2022-08-26T20:49:55.695Z,71.74
2022-08-26T20:52:22.137Z,71.94
2022-08-26T20:54:48.576Z,72.08
2022-08-26T20:57:15.015Z,72.17
2022-08-26T20:59:41.455Z,71.94
2022-08-26T21:02:08.019Z,72.12
2022-08-26T21:04:34.643Z,72.21
2022-08-26T21:07:01.132Z,72.60
2022-08-26T21:09:27.752Z,72.10
2022-08-26T21:11:55.865Z,72.05
2022-08-26T21:14:22.553Z,72.40
2022-08-26T21:16:49.183Z,72.44
2022-08-26T21:19:18.069Z,72.44
2022-08-26T21:21:46.710Z,72.50
2022-08-26T21:24:13.158Z,72.51
2022-08-26T21:26:40.198Z,72.63
2022-08-26T21:29:06.846Z,72.83
2022-08-26T21:31:33.292Z,72.89
2022-08-26T21:33:59.978Z,72.92
2022-08-26T21:36:26.413Z,73.18
2022-08-26T21:38:55.960Z,73.60
2022-08-26T21:41:22.620Z,73.30
2022-08-26T21:43:51.139Z,73.28
2022-08-26T21:46:20.169Z,73.51
2022-08-26T21:48:50.869Z,73.34
2022-08-26T21:51:20.339Z,73.45
2022-08-26T21:53:47.003Z,73.36
2022-08-26T21:56:16.639Z,73.38
2022-08-26T21:58:43.244Z,73.92
2022-08-26T22:01:11.794Z,73.18
2022-08-26T22:03:47.451Z,73.48
2022-08-26T22:06:18.708Z,73.42
2022-08-26T22:08:45.291Z,73.43
2022-08-26T22:11:12.261Z,73.24
2022-08-26T22:13:40.655Z,73.24
2022-08-26T22:16:08.099Z,73.30
2022-08-26T22:18:35.844Z,73.39
2022-08-26T22:21:06.341Z,73.57
2022-08-26T22:23:32.810Z,73.72
2022-08-26T22:26:00.077Z,73.75
2022-08-26T22:28:26.739Z,74.04
2022-08-26T22:30:53.157Z,74.62
2022-08-26T22:33:19.843Z,74.51
2022-08-26T22:35:48.633Z,74.75
2022-08-26T22:38:16.026Z,74.77
2022-08-26T22:40:45.110Z,75.04
2022-08-26T22:43:12.084Z,75.42
2022-08-26T22:45:43.957Z,75.66
2022-08-26T22:48:11.681Z,76.56
2022-08-26T22:50:38.604Z,76.27
2022-08-26T22:53:05.026Z,75.84
2022-08-26T22:55:31.469Z,76.22
2022-08-26T22:57:57.942Z,76.19
2022-08-26T23:00:31.818Z,76.35
2022-08-26T23:02:59.840Z,76.57
2022-08-26T23:05:26.766Z,76.47
2022-08-26T23:07:53.260Z,76.93
2022-08-26T23:10:20.036Z,76.66
2022-08-26T23:12:46.481Z,76.86
2022-08-26T23:15:12.912Z,77.22
2022-08-26T23:17:39.887Z,77.08
2022-08-26T23:20:10.008Z,77.30
2022-08-26T23:22:37.037Z,77.17
2022-08-26T23:25:06.797Z,77.38
2022-08-26T23:27:39.835Z,77.54
2022-08-26T23:30:07.960Z,78.06
2022-08-26T23:32:34.578Z,77.56
2022-08-26T23:35:01.221Z,77.72
2022-08-26T23:37:33.472Z,78.00
2022-08-26T23:40:04.981Z,77.82
2022-08-26T23:42:31.403Z,78.05
2022-08-26T23:44:57.828Z,78.35
2022-08-26T23:47:24.473Z,77.94
2022-08-26T23:49:50.907Z,77.93
2022-08-26T23:52:17.299Z,78.07
2022-08-26T23:54:43.728Z,78.00
2022-08-26T23:57:10.369Z,78.20
2022-08-26T23:59:38.667Z,78.41
